Time;durP1;ratioP1;P1;durP2;ratioP2;P2;SDS_P1;SDS_P2;PMS_P1;PMS_P2;Temp;Humidity;BMP_temperature;BMP_pressure;BME280_temperature;BME280_humidity;BME280_pressure;Samples;Min_cycle;Max_cycle;Signal;HPM_P1;HPM_P2
2022/01/09 00:00:16;;;;;;;9.52;6.90;;;;;;;;;;5120411;27;24413;-58
2022/01/09 00:02:41;;;;;;;8.05;6.68;;;;;;;;;;5121099;27;24409;-59
2022/01/09 00:05:07;;;;;;;7.80;6.60;;;;;;;;;;5124060;27;24906;-58
2022/01/09 00:07:32;;;;;;;9.07;7.00;;;;;;;;;;5122728;27;24804;-58
2022/01/09 00:09:57;;;;;;;8.90;6.70;;;;;;;;;;5122275;27;24585;-58
2022/01/09 00:12:23;;;;;;;9.30;7.10;;;;;;;;;;5124210;27;24433;-57
2022/01/09 00:14:48;;;;;;;7.60;6.80;;;;;;;;;;5124199;27;24766;-58
2022/01/09 00:17:13;;;;;;;10.15;7.28;;;;;;;;;;5121813;27;24966;-56
2022/01/09 00:19:38;;;;;;;7.87;6.30;;;;;;;;;;5117787;27;24429;-57
2022/01/09 00:22:03;;;;;;;9.13;6.97;;;;;;;;;;5115976;27;24505;-58
2022/01/09 00:24:29;;;;;;;7.63;6.18;;;;;;;;;;5125131;27;24453;-58
2022/01/09 00:26:54;;;;;;;8.50;6.30;;;;;;;;;;5122254;27;24409;-59
2022/01/09 00:29:19;;;;;;;7.80;7.00;;;;;;;;;;5114308;27;25029;-59
2022/01/09 00:31:44;;;;;;;8.07;6.00;;;;;;;;;;5120772;27;24421;-58
2022/01/09 00:34:09;;;;;;;7.83;6.40;;;;;;;;;;5124913;27;24432;-59
2022/01/09 00:36:34;;;;;;;8.88;6.40;;;;;;;;;;5118600;27;24554;-58
2022/01/09 00:38:59;;;;;;;7.00;6.30;;;;;;;;;;5121442;27;24552;-59
2022/01/09 00:41:25;;;;;;;8.35;7.03;;;;;;;;;;5118632;27;25176;-59
2022/01/09 00:43:50;;;;;;;8.38;7.03;;;;;;;;;;5120579;27;24509;-59
2022/01/09 00:46:16;;;;;;;7.28;6.45;;;;;;;;;;5119669;27;24516;-58
2022/01/09 00:48:41;;;;;;;8.17;7.00;;;;;;;;;;5124329;27;24416;-58
2022/01/09 00:51:06;;;;;;;8.23;6.82;;;;;;;;;;5116976;27;24505;-58
2022/01/09 00:53:31;;;;;;;8.10;6.63;;;;;;;;;;5124749;27;24877;-60
2022/01/09 00:55:56;;;;;;;8.30;6.80;;;;;;;;;;5119677;27;24417;-59
2022/01/09 00:58:21;;;;;;;7.57;6.60;;;;;;;;;;5120676;27;24821;-58
2022/01/09 01:00:46;;;;;;;9.10;7.30;;;;;;;;;;5121142;27;24435;-59
2022/01/09 01:03:12;;;;;;;7.87;7.07;;;;;;;;;;5123513;27;25091;-59
2022/01/09 01:05:37;;;;;;;8.67;7.57;;;;;;;;;;5121693;27;24470;-59
2022/01/09 01:08:02;;;;;;;7.83;7.03;;;;;;;;;;5113406;27;24413;-59
2022/01/09 01:10:28;;;;;;;7.73;6.93;;;;;;;;;;5112572;27;24410;-59
2022/01/09 01:12:53;;;;;;;7.67;6.87;;;;;;;;;;5122275;27;25160;-59
2022/01/09 01:15:18;;;;;;;9.10;7.38;;;;;;;;;;5121981;27;24458;-58
2022/01/09 01:17:44;;;;;;;8.02;7.22;;;;;;;;;;5123291;27;24566;-58
2022/01/09 01:20:10;;;;;;;7.97;6.93;;;;;;;;;;5121264;27;24416;-59
2022/01/09 01:22:35;;;;;;;8.40;7.20;;;;;;;;;;5113193;27;24421;-59
2022/01/09 01:25:01;;;;;;;7.67;6.87;;;;;;;;;;5111152;27;25069;-59
2022/01/09 01:27:27;;;;;;;8.90;6.90;;;;;;;;;;5123383;27;24432;-60
2022/01/09 01:29:52;;;;;;;8.10;6.67;;;;;;;;;;5102946;28;24417;-59
2022/01/09 01:32:17;;;;;;;7.30;6.60;;;;;;;;;;5121529;27;24436;-59
2022/01/09 01:34:42;;;;;;;7.43;6.72;;;;;;;;;;5117292;28;24779;-59
2022/01/09 01:37:07;;;;;;;8.47;6.67;;;;;;;;;;5107596;28;25072;-57
2022/01/09 01:39:33;;;;;;;7.40;6.70;;;;;;;;;;5119803;28;24412;-57
2022/01/09 01:41:58;;;;;;;8.05;6.50;;;;;;;;;;5122008;28;24776;-58
2022/01/09 01:44:23;;;;;;;8.18;6.50;;;;;;;;;;5123111;28;24931;-58
2022/01/09 01:46:48;;;;;;;7.07;6.03;;;;;;;;;;5123001;28;24437;-59
2022/01/09 01:49:13;;;;;;;7.50;6.20;;;;;;;;;;5121667;28;24413;-58
2022/01/09 01:51:41;;;;;;;6.90;5.80;;;;;;;;;;5120259;28;25291;-58
2022/01/09 01:54:08;;;;;;;7.63;6.10;;;;;;;;;;5119949;28;24558;-58
2022/01/09 01:56:34;;;;;;;6.70;6.00;;;;;;;;;;5121817;28;24454;-59
2022/01/09 01:58:59;;;;;;;6.38;5.40;;;;;;;;;;5123288;28;24903;-58
2022/01/09 02:01:24;;;;;;;5.70;5.20;;;;;;;;;;5121309;28;24515;-58
2022/01/09 02:03:50;;;;;;;7.57;5.80;;;;;;;;;;5113748;28;24500;-59
2022/01/09 02:06:15;;;;;;;6.45;5.55;;;;;;;;;;5116587;28;24623;-58
2022/01/09 02:08:41;;;;;;;7.77;5.07;;;;;;;;;;5102528;28;24402;-58
2022/01/09 02:11:06;;;;;;;5.82;5.22;;;;;;;;;;5116551;28;24529;-59
2022/01/09 02:13:31;;;;;;;6.00;5.00;;;;;;;;;;5122956;27;24496;-60
2022/01/09 02:15:59;;;;;;;6.73;5.00;;;;;;;;;;5121747;27;24450;-59
2022/01/09 02:18:24;;;;;;;7.95;5.45;;;;;;;;;;5125345;27;24941;-59
2022/01/09 02:20:50;;;;;;;6.07;4.73;;;;;;;;;;5122803;27;24489;-59
2022/01/09 02:23:16;;;;;;;5.20;4.80;;;;;;;;;;5115720;27;24966;-59
2022/01/09 02:25:42;;;;;;;5.63;5.05;;;;;;;;;;5122045;27;24974;-59
2022/01/09 02:28:08;;;;;;;5.70;5.20;;;;;;;;;;5118175;27;24428;-59
2022/01/09 02:30:34;;;;;;;5.95;5.15;;;;;;;;;;5123029;27;24436;-58
2022/01/09 02:33:03;;;;;;;6.18;5.07;;;;;;;;;;5126813;27;24439;-58
2022/01/09 02:35:28;;;;;;;5.97;4.90;;;;;;;;;;5123500;27;24513;-59
2022/01/09 02:37:53;;;;;;;5.63;5.13;;;;;;;;;;5123840;27;24528;-59
2022/01/09 02:40:19;;;;;;;5.70;5.20;;;;;;;;;;5122697;27;24466;-59
2022/01/09 02:42:44;;;;;;;4.97;4.57;;;;;;;;;;5124982;27;24409;-59
2022/01/09 02:45:09;;;;;;;5.80;5.30;;;;;;;;;;5124823;27;24576;-58
2022/01/09 02:47:36;;;;;;;4.97;4.57;;;;;;;;;;5126051;27;24543;-58
2022/01/09 02:50:11;;;;;;;5.20;4.80;;;;;;;;;;5114927;27;24824;-58
2022/01/09 02:52:48;;;;;;;5.82;4.70;;;;;;;;;;5119709;27;24833;-59
2022/01/09 02:55:14;;;;;;;6.00;5.40;;;;;;;;;;5125433;27;24409;-59
2022/01/09 02:57:47;;;;;;;6.53;5.83;;;;;;;;;;5126194;27;24415;-59
2022/01/09 03:00:14;;;;;;;6.77;5.57;;;;;;;;;;5121421;27;24413;-59
2022/01/09 03:02:39;;;;;;;5.78;5.28;;;;;;;;;;5122674;27;24417;-59
2022/01/09 03:05:05;;;;;;;6.83;5.33;;;;;;;;;;5119368;27;24454;-59
2022/01/09 03:07:30;;;;;;;5.80;5.30;;;;;;;;;;5125368;27;24421;-60
2022/01/09 03:09:55;;;;;;;7.37;5.60;;;;;;;;;;5121066;27;24462;-59
2022/01/09 03:12:22;;;;;;;5.80;5.20;;;;;;;;;;5123242;27;24437;-59
2022/01/09 03:14:47;;;;;;;6.72;5.95;;;;;;;;;;5121543;27;26204;-59
2022/01/09 03:17:12;;;;;;;5.15;4.55;;;;;;;;;;5122279;27;24429;-59
2022/01/09 03:19:37;;;;;;;6.05;5.30;;;;;;;;;;5125284;27;24854;-59
2022/01/09 03:22:02;;;;;;;5.10;4.70;;;;;;;;;;5119261;27;24420;-61
2022/01/09 03:24:27;;;;;;;5.80;5.30;;;;;;;;;;5124898;27;25022;-59
2022/01/09 03:26:53;;;;;;;5.50;5.00;;;;;;;;;;5123392;27;24424;-58
2022/01/09 03:29:18;;;;;;;5.13;4.65;;;;;;;;;;5124563;27;24531;-59
2022/01/09 03:31:43;;;;;;;5.20;4.70;;;;;;;;;;5124993;27;24443;-59
2022/01/09 03:34:08;;;;;;;5.64;4.80;;;;;;;;;;5119396;27;24466;-59
2022/01/09 03:36:33;;;;;;;5.28;4.75;;;;;;;;;;5117449;27;24520;-59
2022/01/09 03:38:58;;;;;;;5.35;4.78;;;;;;;;;;5121717;27;24405;-59
2022/01/09 03:41:24;;;;;;;5.35;4.82;;;;;;;;;;5125227;27;24791;-59
2022/01/09 03:43:49;;;;;;;4.90;4.50;;;;;;;;;;5123461;27;24533;-59
2022/01/09 03:46:14;;;;;;;5.43;4.80;;;;;;;;;;5120539;27;24447;-59
2022/01/09 03:48:39;;;;;;;5.02;4.62;;;;;;;;;;5120161;27;24477;-59
2022/01/09 03:51:04;;;;;;;6.60;5.50;;;;;;;;;;5120641;27;24465;-59
2022/01/09 03:53:32;;;;;;;6.03;5.00;;;;;;;;;;5122753;27;25594;-59
2022/01/09 03:55:58;;;;;;;5.72;5.22;;;;;;;;;;5122921;27;24441;-59
2022/01/09 03:58:23;;;;;;;5.50;5.00;;;;;;;;;;5122882;27;24492;-59
2022/01/09 04:00:48;;;;;;;5.20;4.60;;;;;;;;;;5124204;27;24413;-58
2022/01/09 04:03:13;;;;;;;5.10;4.60;;;;;;;;;;5122488;27;24484;-59
2022/01/09 04:05:38;;;;;;;5.20;4.70;;;;;;;;;;5123887;27;24977;-59
2022/01/09 04:08:04;;;;;;;5.30;4.47;;;;;;;;;;5118735;27;24465;-59
2022/01/09 04:10:30;;;;;;;5.13;4.63;;;;;;;;;;5117283;27;24775;-59
2022/01/09 04:12:59;;;;;;;5.07;4.50;;;;;;;;;;5123063;27;24436;-59
2022/01/09 04:15:25;;;;;;;5.53;4.38;;;;;;;;;;5124355;27;24958;-59
2022/01/09 04:20:15;;;;;;;5.60;4.43;;;;;;;;;;5117318;27;24417;-59
2022/01/09 04:22:40;;;;;;;4.90;4.40;;;;;;;;;;5121293;27;24401;-59
2022/01/09 04:25:06;;;;;;;5.87;4.23;;;;;;;;;;5113838;27;24447;-59
2022/01/09 04:27:31;;;;;;;4.53;4.03;;;;;;;;;;5106172;27;24401;-59
2022/01/09 04:29:56;;;;;;;5.05;4.28;;;;;;;;;;5122834;27;24409;-59
2022/01/09 04:32:22;;;;;;;4.67;4.17;;;;;;;;;;5107788;27;24526;-60
2022/01/09 04:34:47;;;;;;;5.53;4.40;;;;;;;;;;5100807;28;24757;-59
2022/01/09 04:37:12;;;;;;;5.07;4.57;;;;;;;;;;5113800;27;24538;-59
2022/01/09 04:39:37;;;;;;;5.07;4.25;;;;;;;;;;5123980;27;24409;-59
2022/01/09 04:42:02;;;;;;;4.80;4.40;;;;;;;;;;5112783;27;24945;-59
2022/01/09 04:44:28;;;;;;;5.00;4.60;;;;;;;;;;5122552;27;24428;-59
2022/01/09 04:47:02;;;;;;;6.23;4.10;;;;;;;;;;5109200;27;24511;-60
2022/01/09 04:49:34;;;;;;;4.70;4.20;;;;;;;;;;5121131;27;24463;-59
2022/01/09 04:52:00;;;;;;;5.15;4.75;;;;;;;;;;5114675;27;24470;-59
2022/01/09 04:54:26;;;;;;;5.45;4.53;;;;;;;;;;5121480;27;24409;-59
2022/01/09 04:56:51;;;;;;;5.33;4.40;;;;;;;;;;5120600;27;24462;-58
2022/01/09 04:59:16;;;;;;;4.60;4.20;;;;;;;;;;5109801;27;24424;-59
2022/01/09 05:01:41;;;;;;;4.50;4.10;;;;;;;;;;5106398;27;24501;-59
2022/01/09 05:04:06;;;;;;;5.30;4.80;;;;;;;;;;5102313;28;24990;-59
2022/01/09 05:06:31;;;;;;;5.10;4.28;;;;;;;;;;5123038;27;24412;-58
2022/01/09 05:08:56;;;;;;;6.03;4.80;;;;;;;;;;5120688;27;24445;-59
2022/01/09 05:11:22;;;;;;;4.93;4.43;;;;;;;;;;5118794;27;24425;-59
2022/01/09 05:13:47;;;;;;;5.63;4.80;;;;;;;;;;5119925;27;24474;-58
2022/01/09 05:16:12;;;;;;;5.78;4.63;;;;;;;;;;5119153;27;24500;-58
2022/01/09 05:18:51;;;;;;;5.27;4.63;;;;;;;;;;5119702;27;24409;-58
2022/01/09 05:21:16;;;;;;;7.50;5.10;;;;;;;;;;5123468;27;24453;-58
2022/01/09 05:23:42;;;;;;;5.17;4.67;;;;;;;;;;5123473;27;24842;-58
2022/01/09 05:26:07;;;;;;;5.10;4.60;;;;;;;;;;5120520;27;24964;-58
2022/01/09 05:28:32;;;;;;;5.10;4.60;;;;;;;;;;5123530;28;24449;-58
2022/01/09 05:30:58;;;;;;;5.57;5.07;;;;;;;;;;5120869;27;24783;-59
2022/01/09 05:33:23;;;;;;;5.85;5.25;;;;;;;;;;5117343;27;24957;-59
2022/01/09 05:35:48;;;;;;;5.40;4.90;;;;;;;;;;5116019;28;24950;-61
2022/01/09 05:38:14;;;;;;;6.28;5.40;;;;;;;;;;5120830;28;24489;-59
2022/01/09 05:40:39;;;;;;;5.47;4.77;;;;;;;;;;5119253;28;24409;-60
2022/01/09 05:43:05;;;;;;;5.50;4.70;;;;;;;;;;5121446;28;24409;-59
2022/01/09 05:45:30;;;;;;;5.60;5.07;;;;;;;;;;5122531;28;25045;-59
2022/01/09 05:47:55;;;;;;;6.47;5.00;;;;;;;;;;5118455;27;24386;-59
2022/01/09 05:50:20;;;;;;;7.03;5.70;;;;;;;;;;5126647;27;24481;-59
2022/01/09 05:52:45;;;;;;;6.33;5.50;;;;;;;;;;5125515;27;24496;-60
2022/01/09 05:55:11;;;;;;;6.03;5.43;;;;;;;;;;5122978;27;24855;-59
2022/01/09 05:57:36;;;;;;;6.75;5.40;;;;;;;;;;5127065;27;24459;-59
2022/01/09 06:00:02;;;;;;;7.00;5.93;;;;;;;;;;5116036;27;24963;-59
2022/01/09 06:02:27;;;;;;;6.53;5.93;;;;;;;;;;5126685;27;24513;-60
2022/01/09 06:04:52;;;;;;;5.57;5.07;;;;;;;;;;5126018;27;24414;-58
2022/01/09 06:07:17;;;;;;;5.97;5.38;;;;;;;;;;5125045;27;24437;-58
2022/01/09 06:09:44;;;;;;;7.13;6.13;;;;;;;;;;5119705;27;24428;-59
2022/01/09 06:12:09;;;;;;;6.22;5.53;;;;;;;;;;5122944;27;24440;-59
2022/01/09 06:14:34;;;;;;;7.57;6.43;;;;;;;;;;5122636;27;24452;-58
2022/01/09 06:16:59;;;;;;;6.25;5.47;;;;;;;;;;5120229;27;24605;-59
2022/01/09 06:19:24;;;;;;;7.90;6.00;;;;;;;;;;5124628;27;24405;-60
2022/01/09 06:21:49;;;;;;;6.88;6.20;;;;;;;;;;5120729;27;24513;-59
2022/01/09 06:24:14;;;;;;;6.35;5.85;;;;;;;;;;5120244;27;24985;-58
2022/01/09 06:26:40;;;;;;;6.15;5.55;;;;;;;;;;5124601;27;24417;-58
2022/01/09 06:29:05;;;;;;;6.00;5.40;;;;;;;;;;5121932;27;24558;-59
2022/01/09 06:31:30;;;;;;;7.00;6.30;;;;;;;;;;5115446;27;24436;-59
2022/01/09 06:33:56;;;;;;;8.97;6.23;;;;;;;;;;5119267;27;24502;-58
2022/01/09 06:36:21;;;;;;;6.55;5.95;;;;;;;;;;5120564;27;24986;-59
2022/01/09 06:38:46;;;;;;;6.47;5.87;;;;;;;;;;5122925;27;24466;-59
2022/01/09 06:41:11;;;;;;;6.88;6.18;;;;;;;;;;5120705;27;24743;-59
2022/01/09 06:43:36;;;;;;;6.90;6.20;;;;;;;;;;5117224;27;25012;-59
2022/01/09 06:46:01;;;;;;;6.30;5.80;;;;;;;;;;5120017;27;24419;-58
2022/01/09 06:48:27;;;;;;;6.60;6.00;;;;;;;;;;5121330;27;24424;-59
2022/01/09 06:50:52;;;;;;;6.95;6.30;;;;;;;;;;5123867;27;24428;-58
2022/01/09 06:53:17;;;;;;;6.63;5.80;;;;;;;;;;5119341;27;24438;-58
2022/01/09 06:55:43;;;;;;;7.13;6.43;;;;;;;;;;5120721;27;24497;-59
2022/01/09 06:58:08;;;;;;;7.45;6.50;;;;;;;;;;5122816;27;24946;-59
2022/01/09 07:00:34;;;;;;;7.37;6.33;;;;;;;;;;5118732;27;24425;-58
2022/01/09 07:02:59;;;;;;;6.97;6.27;;;;;;;;;;5109628;27;25073;-58
2022/01/09 07:05:24;;;;;;;7.77;7.00;;;;;;;;;;5125290;27;24817;-59
2022/01/09 07:07:49;;;;;;;7.20;6.50;;;;;;;;;;5123687;27;24438;-59
2022/01/09 07:10:14;;;;;;;7.00;6.30;;;;;;;;;;5124924;27;24405;-59
2022/01/09 07:12:40;;;;;;;7.00;6.30;;;;;;;;;;5120308;27;24473;-59
2022/01/09 07:15:05;;;;;;;6.40;5.80;;;;;;;;;;5110126;27;24409;-60
2022/01/09 07:17:31;;;;;;;6.43;5.82;;;;;;;;;;5124917;27;24506;-59
2022/01/09 07:19:56;;;;;;;5.70;5.20;;;;;;;;;;5117960;27;24755;-59
2022/01/09 07:22:21;;;;;;;6.00;5.40;;;;;;;;;;5115443;27;24416;-60
2022/01/09 07:24:46;;;;;;;6.13;5.27;;;;;;;;;;5112125;27;24523;-60
2022/01/09 07:27:15;;;;;;;5.45;4.95;;;;;;;;;;5119432;27;24888;-59
2022/01/09 07:29:40;;;;;;;6.00;5.25;;;;;;;;;;5117845;27;24425;-59
2022/01/09 07:32:06;;;;;;;5.68;5.18;;;;;;;;;;5118142;27;24497;-59
2022/01/09 07:34:31;;;;;;;6.10;5.50;;;;;;;;;;5115975;27;24452;-59
2022/01/09 07:36:56;;;;;;;6.05;5.30;;;;;;;;;;5125939;27;24508;-59
2022/01/09 07:39:21;;;;;;;4.90;4.50;;;;;;;;;;5119781;27;24413;-59
2022/01/09 07:41:46;;;;;;;5.53;4.93;;;;;;;;;;5115874;27;24961;-62
2022/01/09 07:44:12;;;;;;;5.30;4.90;;;;;;;;;;5124372;27;24554;-59
2022/01/09 07:46:38;;;;;;;5.07;4.57;;;;;;;;;;5122241;27;24774;-58
2022/01/09 07:49:03;;;;;;;5.82;5.38;;;;;;;;;;5120384;27;24409;-58
2022/01/09 07:51:28;;;;;;;5.10;4.70;;;;;;;;;;5109135;27;24436;-58
2022/01/09 07:53:53;;;;;;;5.30;4.90;;;;;;;;;;5120095;27;24492;-58
2022/01/09 07:56:18;;;;;;;5.00;4.60;;;;;;;;;;5120315;27;24423;-57
2022/01/09 07:58:44;;;;;;;4.50;4.10;;;;;;;;;;5116687;27;24410;-59
2022/01/09 08:01:09;;;;;;;4.67;4.27;;;;;;;;;;5120459;27;26498;-58
2022/01/09 08:03:35;;;;;;;4.00;3.70;;;;;;;;;;5120381;27;24413;-58
2022/01/09 08:06:00;;;;;;;4.80;4.40;;;;;;;;;;5115085;27;24467;-58
2022/01/09 08:08:25;;;;;;;5.45;4.95;;;;;;;;;;5123181;27;24664;-58
2022/01/09 08:10:52;;;;;;;4.70;4.30;;;;;;;;;;5124102;27;24436;-58
2022/01/09 08:13:17;;;;;;;4.63;4.22;;;;;;;;;;5123388;27;24417;-58
2022/01/09 08:15:42;;;;;;;4.85;4.45;;;;;;;;;;5124358;27;24427;-59
2022/01/09 08:18:07;;;;;;;5.00;4.60;;;;;;;;;;5120804;27;24614;-59
2022/01/09 08:20:32;;;;;;;4.68;4.28;;;;;;;;;;5121222;27;24452;-59
2022/01/09 08:22:58;;;;;;;4.47;4.07;;;;;;;;;;5124703;27;24405;-59
2022/01/09 08:25:23;;;;;;;4.80;4.40;;;;;;;;;;5125034;27;24425;-59
2022/01/09 08:27:48;;;;;;;4.60;4.20;;;;;;;;;;5124351;27;24950;-59
2022/01/09 08:30:15;;;;;;;4.90;4.50;;;;;;;;;;5109271;27;24968;-59
2022/01/09 08:32:40;;;;;;;4.50;4.10;;;;;;;;;;5122700;27;25232;-59
2022/01/09 08:35:06;;;;;;;4.90;4.20;;;;;;;;;;5121928;27;24443;-59
2022/01/09 08:37:31;;;;;;;4.90;4.40;;;;;;;;;;5106968;27;24468;-59
2022/01/09 08:39:57;;;;;;;4.80;4.40;;;;;;;;;;5113710;27;24413;-59
2022/01/09 08:42:22;;;;;;;4.33;3.93;;;;;;;;;;5107205;27;24504;-59
2022/01/09 08:44:47;;;;;;;4.80;4.00;;;;;;;;;;5108336;27;24405;-59
2022/01/09 08:47:12;;;;;;;4.53;4.22;;;;;;;;;;5117319;27;24526;-59
2022/01/09 08:49:37;;;;;;;4.30;4.00;;;;;;;;;;5117053;27;24413;-58
2022/01/09 08:52:03;;;;;;;4.30;4.00;;;;;;;;;;5123729;27;25083;-58
2022/01/09 08:54:28;;;;;;;5.20;4.80;;;;;;;;;;5114936;27;24413;-59
2022/01/09 08:56:54;;;;;;;4.70;4.30;;;;;;;;;;5124438;27;24473;-58
2022/01/09 08:59:19;;;;;;;4.83;4.53;;;;;;;;;;5115701;27;24835;-59
2022/01/09 09:01:45;;;;;;;5.35;4.85;;;;;;;;;;5119780;27;24426;-59
2022/01/09 09:04:10;;;;;;;4.80;4.40;;;;;;;;;;5117421;27;24413;-57
2022/01/09 09:06:35;;;;;;;5.00;4.60;;;;;;;;;;5114535;27;24947;-58
2022/01/09 09:09:00;;;;;;;5.10;4.70;;;;;;;;;;5116564;27;24417;-58
2022/01/09 09:11:26;;;;;;;5.30;4.90;;;;;;;;;;5122580;27;24441;-58
2022/01/09 09:13:51;;;;;;;5.13;4.73;;;;;;;;;;5121010;27;24456;-59
2022/01/09 09:16:16;;;;;;;4.83;4.43;;;;;;;;;;5119522;27;24529;-58
2022/01/09 09:18:43;;;;;;;4.70;4.20;;;;;;;;;;5117613;27;24513;-58
2022/01/09 09:21:08;;;;;;;4.53;4.20;;;;;;;;;;5120754;27;24417;-59
2022/01/09 09:23:33;;;;;;;5.00;4.60;;;;;;;;;;5118269;27;24512;-59
2022/01/09 09:25:58;;;;;;;4.80;4.40;;;;;;;;;;5119699;27;24412;-58
2022/01/09 09:28:24;;;;;;;4.80;4.40;;;;;;;;;;5115753;27;24428;-58
2022/01/09 09:30:49;;;;;;;5.03;4.63;;;;;;;;;;5112613;27;24433;-59
2022/01/09 09:33:14;;;;;;;4.97;4.57;;;;;;;;;;5120577;27;24543;-57
2022/01/09 09:35:39;;;;;;;4.97;4.50;;;;;;;;;;5123588;27;24397;-59
2022/01/09 09:38:05;;;;;;;4.60;4.20;;;;;;;;;;5118241;28;24802;-59
2022/01/09 09:40:30;;;;;;;4.50;4.10;;;;;;;;;;5118656;28;25005;-58
2022/01/09 09:42:55;;;;;;;4.70;4.40;;;;;;;;;;5117874;28;24439;-58
2022/01/09 09:45:20;;;;;;;4.70;4.32;;;;;;;;;;5123006;28;24412;-58
2022/01/09 09:47:46;;;;;;;4.70;4.33;;;;;;;;;;5123301;28;25036;-58
2022/01/09 09:50:12;;;;;;;4.67;4.27;;;;;;;;;;5117294;28;24413;-58
2022/01/09 09:52:37;;;;;;;4.90;4.40;;;;;;;;;;5117707;28;24432;-57
2022/01/09 09:55:03;;;;;;;4.77;4.37;;;;;;;;;;5122398;28;24820;-61
2022/01/09 09:57:28;;;;;;;4.60;4.20;;;;;;;;;;5121967;28;24416;-58
2022/01/09 10:00:00;;;;;;;4.77;4.37;;;;;;;;;;5121298;28;24504;-59
2022/01/09 10:02:25;;;;;;;4.53;4.10;;;;;;;;;;5119499;28;24417;-58
2022/01/09 10:05:00;;;;;;;4.50;4.20;;;;;;;;;;5117905;28;25001;-59
2022/01/09 10:07:26;;;;;;;4.90;4.50;;;;;;;;;;5120627;28;24474;-58
2022/01/09 10:09:53;;;;;;;4.83;4.43;;;;;;;;;;5120319;27;24421;-59
2022/01/09 10:12:22;;;;;;;5.03;4.63;;;;;;;;;;5123166;28;24460;-58
2022/01/09 10:14:51;;;;;;;5.32;4.82;;;;;;;;;;5123029;28;24820;-58
2022/01/09 10:17:19;;;;;;;5.50;5.00;;;;;;;;;;5118269;28;24497;-58
2022/01/09 10:19:47;;;;;;;5.35;4.85;;;;;;;;;;5118969;28;24556;-58
2022/01/09 10:22:33;;;;;;;5.10;4.70;;;;;;;;;;5120915;28;24659;-57
2022/01/09 10:25:14;;;;;;;4.93;4.50;;;;;;;;;;5121208;28;24428;-58
2022/01/09 10:27:39;;;;;;;4.93;4.53;;;;;;;;;;5118323;28;24417;-57
2022/01/09 10:30:05;;;;;;;5.00;4.55;;;;;;;;;;5116293;28;24824;-59
2022/01/09 10:32:31;;;;;;;5.00;4.60;;;;;;;;;;5120414;27;24428;-58
2022/01/09 10:35:15;;;;;;;5.15;4.65;;;;;;;;;;5121983;27;24866;-58
2022/01/09 10:37:44;;;;;;;5.60;5.10;;;;;;;;;;5125447;27;24471;-58
2022/01/09 10:40:11;;;;;;;4.63;4.30;;;;;;;;;;5120382;27;24424;-58
2022/01/09 10:42:37;;;;;;;6.10;5.50;;;;;;;;;;5122713;27;24410;-58
2022/01/09 10:45:18;;;;;;;5.70;5.20;;;;;;;;;;5119476;27;24505;-58
2022/01/09 10:47:44;;;;;;;5.72;5.22;;;;;;;;;;5108057;27;24413;-57
2022/01/09 10:50:10;;;;;;;5.10;4.70;;;;;;;;;;5126011;27;24404;-58
2022/01/09 10:52:39;;;;;;;5.60;5.10;;;;;;;;;;5125923;27;24421;-57
2022/01/09 10:55:06;;;;;;;5.50;5.00;;;;;;;;;;5124575;27;24413;-60
2022/01/09 10:57:37;;;;;;;4.93;4.53;;;;;;;;;;5124554;27;24767;-59
2022/01/09 11:00:04;;;;;;;5.38;4.88;;;;;;;;;;5108092;27;24408;-59
2022/01/09 11:02:30;;;;;;;5.50;5.00;;;;;;;;;;5120369;27;24451;-59
2022/01/09 11:04:55;;;;;;;5.60;5.10;;;;;;;;;;5125978;27;24428;-58
2022/01/09 11:07:20;;;;;;;5.25;4.75;;;;;;;;;;5125307;27;24417;-58
2022/01/09 11:09:48;;;;;;;5.50;5.10;;;;;;;;;;5125823;27;24838;-59
2022/01/09 11:12:17;;;;;;;5.32;4.90;;;;;;;;;;5126656;27;24413;-58
2022/01/09 11:14:42;;;;;;;5.97;5.38;;;;;;;;;;5124469;27;24408;-58
2022/01/09 11:17:09;;;;;;;5.50;5.00;;;;;;;;;;5122379;27;24409;-58
2022/01/09 11:19:34;;;;;;;5.78;5.28;;;;;;;;;;5119446;27;24404;-58
2022/01/09 11:22:00;;;;;;;5.80;5.30;;;;;;;;;;5120010;27;24428;-59
2022/01/09 11:24:31;;;;;;;5.70;5.20;;;;;;;;;;5119143;27;24421;-58
2022/01/09 11:27:05;;;;;;;5.30;4.80;;;;;;;;;;5114123;27;24949;-59
2022/01/09 11:29:39;;;;;;;5.80;5.30;;;;;;;;;;5120126;27;24432;-59
2022/01/09 11:32:24;;;;;;;7.40;5.82;;;;;;;;;;5121919;27;24524;-58
2022/01/09 11:34:52;;;;;;;5.78;5.20;;;;;;;;;;5123328;27;24401;-59
2022/01/09 11:37:36;;;;;;;5.90;5.40;;;;;;;;;;5122425;27;24796;-59
2022/01/09 11:40:03;;;;;;;6.03;5.53;;;;;;;;;;5119481;27;24409;-59
2022/01/09 11:42:28;;;;;;;6.05;5.55;;;;;;;;;;5119490;27;24412;-57
2022/01/09 11:44:54;;;;;;;6.82;6.20;;;;;;;;;;5121902;27;24419;-57
2022/01/09 11:47:20;;;;;;;6.30;5.70;;;;;;;;;;5121004;27;24547;-57
2022/01/09 11:49:56;;;;;;;6.40;5.90;;;;;;;;;;5119961;27;24654;-57
2022/01/09 11:52:25;;;;;;;5.30;4.90;;;;;;;;;;5114866;27;24471;-58
2022/01/09 11:54:52;;;;;;;6.13;5.53;;;;;;;;;;5110870;27;24431;-58
2022/01/09 11:57:36;;;;;;;6.68;6.07;;;;;;;;;;5122510;27;24410;-57
2022/01/09 12:00:01;;;;;;;6.60;6.05;;;;;;;;;;5116615;27;24970;-58
2022/01/09 12:02:30;;;;;;;6.90;6.30;;;;;;;;;;5107863;27;24579;-58
2022/01/09 12:05:01;;;;;;;6.40;5.90;;;;;;;;;;5117093;27;24654;-58
2022/01/09 12:07:32;;;;;;;7.10;6.50;;;;;;;;;;5121642;27;24470;-59
2022/01/09 12:09:58;;;;;;;7.07;6.47;;;;;;;;;;5117761;27;24420;-58
2022/01/09 12:12:32;;;;;;;6.93;6.23;;;;;;;;;;5118579;27;25064;-58
2022/01/09 12:17:26;;;;;;;6.88;6.28;;;;;;;;;;5117005;27;25063;-58
2022/01/09 12:20:04;;;;;;;6.32;5.72;;;;;;;;;;5116541;27;24428;-59
2022/01/09 12:22:51;;;;;;;7.03;6.43;;;;;;;;;;5118681;27;24513;-59
2022/01/09 12:25:25;;;;;;;7.25;6.43;;;;;;;;;;5117054;27;24429;-59
2022/01/09 12:27:54;;;;;;;7.40;6.70;;;;;;;;;;5117448;27;24427;-58
2022/01/09 12:30:48;;;;;;;7.53;6.60;;;;;;;;;;5120949;27;24440;-58
2022/01/09 12:33:25;;;;;;;7.35;6.75;;;;;;;;;;5114249;27;24862;-57
2022/01/09 12:36:06;;;;;;;7.97;6.60;;;;;;;;;;5115293;27;24424;-58
2022/01/09 12:38:33;;;;;;;6.88;6.25;;;;;;;;;;5118805;27;24536;-59
2022/01/09 12:41:00;;;;;;;7.65;6.95;;;;;;;;;;5113363;27;24484;-58
2022/01/09 12:43:26;;;;;;;7.40;6.72;;;;;;;;;;5117852;27;24413;-59
2022/01/09 12:45:54;;;;;;;7.90;7.20;;;;;;;;;;5116661;27;21224;-57
2022/01/09 12:48:29;;;;;;;8.40;7.60;;;;;;;;;;5121533;27;24990;-58
2022/01/09 12:50:55;;;;;;;7.53;6.75;;;;;;;;;;5114973;27;25008;-59
2022/01/09 12:53:28;;;;;;;7.60;6.80;;;;;;;;;;5121333;27;24969;-59
2022/01/09 12:55:54;;;;;;;7.90;7.20;;;;;;;;;;5118028;27;24516;-59
2022/01/09 12:58:25;;;;;;;8.07;7.28;;;;;;;;;;5114636;27;24428;-59
2022/01/09 13:00:50;;;;;;;8.45;7.65;;;;;;;;;;5113887;27;24475;-60
2022/01/09 13:03:19;;;;;;;8.53;7.70;;;;;;;;;;5115877;27;24442;-59
2022/01/09 13:05:52;;;;;;;8.00;7.20;;;;;;;;;;5119944;27;24452;-58
2022/01/09 13:08:18;;;;;;;8.70;7.90;;;;;;;;;;5118878;27;24504;-58
2022/01/09 13:10:43;;;;;;;8.60;7.80;;;;;;;;;;5119224;27;24501;-59
2022/01/09 13:13:10;;;;;;;10.15;9.10;;;;;;;;;;5111088;27;24516;-58
2022/01/09 13:15:36;;;;;;;9.27;8.35;;;;;;;;;;5119959;27;24728;-59
2022/01/09 13:18:02;;;;;;;8.90;8.00;;;;;;;;;;5118825;27;24437;-59
2022/01/09 13:20:27;;;;;;;8.82;7.93;;;;;;;;;;5120261;27;24977;-58
2022/01/09 13:23:09;;;;;;;8.20;7.50;;;;;;;;;;5112035;27;24973;-59
2022/01/09 13:25:42;;;;;;;8.93;8.02;;;;;;;;;;5106066;27;24448;-59
2022/01/09 13:28:07;;;;;;;8.65;7.85;;;;;;;;;;5099772;27;24432;-59
2022/01/09 13:30:32;;;;;;;9.10;8.20;;;;;;;;;;5104992;27;24501;-58
2022/01/09 13:33:01;;;;;;;8.27;7.47;;;;;;;;;;5107605;27;25006;-58
2022/01/09 13:35:26;;;;;;;8.00;7.20;;;;;;;;;;5119836;27;24417;-58
2022/01/09 13:37:55;;;;;;;8.03;7.30;;;;;;;;;;5115540;27;24770;-59
2022/01/09 13:40:20;;;;;;;8.52;7.72;;;;;;;;;;5112883;28;25328;-58
2022/01/09 13:42:46;;;;;;;7.70;7.00;;;;;;;;;;5111285;28;24429;-59
2022/01/09 13:45:14;;;;;;;8.20;7.40;;;;;;;;;;5114808;28;24458;-58
2022/01/09 13:47:47;;;;;;;8.02;7.22;;;;;;;;;;5118715;28;24416;-58
2022/01/09 13:50:14;;;;;;;8.90;8.00;;;;;;;;;;5114687;28;24516;-59
2022/01/09 13:52:39;;;;;;;7.28;6.57;;;;;;;;;;5112322;28;25025;-58
2022/01/09 13:55:04;;;;;;;7.00;6.30;;;;;;;;;;5117847;28;24993;-57
2022/01/09 13:57:30;;;;;;;7.13;6.43;;;;;;;;;;5119455;28;25301;-57
2022/01/09 13:59:56;;;;;;;6.97;6.37;;;;;;;;;;5117186;28;24486;-58
2022/01/09 14:02:23;;;;;;;6.50;5.90;;;;;;;;;;5116797;28;24736;-58
2022/01/09 14:05:06;;;;;;;6.53;5.93;;;;;;;;;;5116726;28;24958;-58
2022/01/09 14:07:31;;;;;;;5.90;5.30;;;;;;;;;;5120135;28;25042;-59
2022/01/09 14:09:57;;;;;;;4.55;4.15;;;;;;;;;;5119491;27;24504;-59
2022/01/09 14:12:23;;;;;;;3.80;3.50;;;;;;;;;;5124067;27;24883;-59
2022/01/09 14:14:48;;;;;;;4.10;3.80;;;;;;;;;;5114987;27;24467;-58
2022/01/09 14:17:23;;;;;;;4.27;3.97;;;;;;;;;;5113095;27;24802;-58
2022/01/09 14:19:49;;;;;;;5.38;4.88;;;;;;;;;;5122601;27;24413;-57
2022/01/09 14:22:14;;;;;;;4.90;4.50;;;;;;;;;;5118589;27;24522;-57
2022/01/09 14:24:55;;;;;;;5.03;4.53;;;;;;;;;;5110506;27;25017;-58
2022/01/09 14:27:27;;;;;;;6.05;5.45;;;;;;;;;;5120753;27;24532;-57
2022/01/09 14:29:52;;;;;;;6.73;6.13;;;;;;;;;;5110677;27;24470;-57
2022/01/09 14:32:18;;;;;;;6.75;6.13;;;;;;;;;;5111312;27;24822;-58
2022/01/09 14:34:43;;;;;;;6.53;5.93;;;;;;;;;;5107840;27;25332;-58
2022/01/09 14:37:09;;;;;;;5.85;5.35;;;;;;;;;;5118559;27;24453;-58
2022/01/09 14:39:34;;;;;;;6.72;6.13;;;;;;;;;;5120297;27;24452;-58
2022/01/09 14:42:00;;;;;;;6.23;5.63;;;;;;;;;;5119880;27;24982;-57
2022/01/09 14:44:25;;;;;;;5.93;5.33;;;;;;;;;;5123623;27;24468;-58